Time;durP1;ratioP1;P1;durP2;ratioP2;P2;SDS_P1;SDS_P2;PMS_P1;PMS_P2;Temp;Humidity;BMP_temperature;BMP_pressure;BME280_temperature;BME280_humidity;BME280_pressure;Samples;Min_cycle;Max_cycle;Signal;HPM_P1;HPM_P2
2022/01/27 00:01:36;;;;;;;23.05;4.70;;;;;;;25.20;30.30;95209.34;4931217;29;20050;-79
2022/01/27 00:04:15;;;;;;;21.08;4.90;;;;;;;25.31;30.11;95210.16;4928587;29;20035;-80
2022/01/27 00:06:41;;;;;;;21.83;5.03;;;;;;;25.25;30.09;95206.72;4915882;29;20028;-80
2022/01/27 00:09:20;;;;;;;25.08;5.53;;;;;;;25.25;30.05;95201.38;4928979;29;20027;-80
2022/01/27 00:11:52;;;;;;;22.48;5.00;;;;;;;25.24;29.93;95194.47;4921558;29;20068;-81
2022/01/27 00:14:20;;;;;;;18.88;4.85;;;;;;;25.26;29.89;95199.50;4932441;29;20039;-79
2022/01/27 00:16:55;;;;;;;18.70;4.78;;;;;;;25.28;29.77;95195.50;4908669;29;20114;-79
2022/01/27 00:19:20;;;;;;;22.13;4.97;;;;;;;25.25;30.12;95193.41;4933707;29;20053;-79
2022/01/27 00:21:45;;;;;;;14.50;4.70;;;;;;;25.25;30.17;95188.06;4934481;29;20039;-79
2022/01/27 00:24:13;;;;;;;21.17;4.88;;;;;;;25.28;29.76;95194.72;4931419;29;20020;-78
2022/01/27 00:26:40;;;;;;;23.30;4.90;;;;;;;25.24;30.08;95199.78;4934085;29;20112;-80
2022/01/27 00:29:05;;;;;;;17.63;5.07;;;;;;;25.27;29.68;95198.47;4934283;29;20059;-79
2022/01/27 00:31:34;;;;;;;23.00;6.03;;;;;;;25.33;29.56;95203.47;4934483;29;20027;-80
2022/01/27 00:34:03;;;;;;;28.38;5.10;;;;;;;25.32;29.60;95201.91;4917810;29;20041;-80
2022/01/27 00:36:32;;;;;;;23.75;4.97;;;;;;;25.32;29.44;95212.56;4917876;29;20099;-79
2022/01/27 00:38:58;;;;;;;31.05;5.30;;;;;;;25.26;29.55;95213.63;4919205;29;20123;-80
2022/01/27 00:41:23;;;;;;;26.13;5.22;;;;;;;25.27;29.67;95207.22;4918492;29;20031;-79
2022/01/27 00:43:49;;;;;;;24.75;4.78;;;;;;;25.24;29.60;95204.31;4934399;29;20058;-79
2022/01/27 00:46:18;;;;;;;20.65;5.60;;;;;;;25.19;29.43;95205.09;4935133;29;20027;-79
2022/01/27 00:48:44;;;;;;;26.98;5.53;;;;;;;25.20;29.24;95204.03;4916629;29;20074;-79
2022/01/27 00:51:15;;;;;;;31.35;5.88;;;;;;;25.25;29.30;95200.59;4921102;29;20030;-78
2022/01/27 00:56:18;;;;;;;20.90;5.00;;;;;;;25.27;29.50;95199.25;4935852;29;20039;-79
2022/01/27 00:58:53;;;;;;;24.63;5.35;;;;;;;25.26;29.33;95205.63;4934203;29;20032;-79
2022/01/27 01:01:24;;;;;;;23.95;5.05;;;;;;;25.20;29.32;95206.69;4923140;29;20046;-80
2022/01/27 01:03:51;;;;;;;;;;;;;;;25.62;28.85;95202.06;4929334;29;20032;-79
2022/01/27 01:06:36;;;;;;;21.60;4.80;;;;;;;25.28;28.82;95205.38;4949133;29;19925;-80
2022/01/27 01:09:49;;;;;;;23.15;5.18;;;;;;;25.22;29.31;95201.88;4930046;29;20036;-80
2022/01/27 01:19:59;;;;;;;22.35;5.00;;;;;;;25.16;29.32;95195.78;4931433;29;20086;-80
2022/01/27 01:33:07;;;;;;;15.52;4.20;;;;;;;25.18;28.91;95198.19;4932110;29;20339;-79
2022/01/27 01:38:14;;;;;;;14.80;4.55;;;;;;;25.17;29.04;95204.59;4919210;29;20015;-79
2022/01/27 01:40:39;;;;;;;14.57;4.22;;;;;;;25.20;28.70;95206.69;4913929;29;20044;-79
2022/01/27 01:43:05;;;;;;;19.35;4.55;;;;;;;25.18;29.24;95206.16;4930438;29;20023;-80
2022/01/27 01:45:33;;;;;;;20.10;5.07;;;;;;;25.13;29.06;95211.50;4917504;29;20035;-79
2022/01/27 01:47:59;;;;;;;12.88;4.47;;;;;;;25.11;29.04;95211.78;4932622;29;20027;-80
2022/01/27 01:50:24;;;;;;;15.45;4.63;;;;;;;25.10;28.83;95204.84;4917886;29;20100;-79
2022/01/27 01:52:55;;;;;;;14.63;4.15;;;;;;;25.06;28.83;95209.13;4933040;29;20032;-79
2022/01/27 01:55:20;;;;;;;14.32;4.60;;;;;;;25.13;28.73;95214.97;4934171;29;20039;-80
2022/01/27 01:57:46;;;;;;;16.83;4.10;;;;;;;25.12;28.58;95212.56;4917077;29;20031;-80
2022/01/27 02:00:14;;;;;;;18.42;5.55;;;;;;;25.10;28.81;95212.84;4916382;29;20031;-80
2022/01/27 02:02:40;;;;;;;12.75;4.63;;;;;;;25.12;28.68;95212.56;4931520;29;20032;-80
2022/01/27 02:05:06;;;;;;;14.18;4.38;;;;;;;25.11;28.82;95211.78;4931138;29;20035;-80
2022/01/27 02:07:46;;;;;;;12.00;4.10;;;;;;;25.11;28.70;95216.28;4916418;29;20034;-78
2022/01/27 02:18:23;;;;;;;12.15;4.00;;;;;;;25.16;28.32;95202.97;4926993;29;20086;-80
2022/01/27 02:20:48;;;;;;;12.05;3.75;;;;;;;25.14;28.28;95197.91;4922785;29;20031;-81
2022/01/27 02:23:14;;;;;;;12.23;3.85;;;;;;;25.11;28.74;95197.66;4915520;29;20031;-79
2022/01/27 02:25:39;;;;;;;12.85;3.72;;;;;;;25.14;28.61;95200.56;4932063;29;20039;-80
2022/01/27 02:28:07;;;;;;;12.13;3.92;;;;;;;25.12;28.62;95200.06;4916585;29;20031;-80
2022/01/27 02:30:32;;;;;;;11.57;3.53;;;;;;;25.11;28.13;95197.66;4933358;29;20035;-80
2022/01/27 02:32:59;;;;;;;8.00;3.38;;;;;;;25.13;28.21;95198.19;4931970;29;20055;-80
2022/01/27 02:35:43;;;;;;;7.82;3.78;;;;;;;25.13;28.03;95199.00;4948720;28;20038;-80
2022/01/27 02:38:09;;;;;;;9.75;3.90;;;;;;;25.13;28.16;95198.19;4933826;29;20039;-79
2022/01/27 02:40:49;;;;;;;10.57;3.42;;;;;;;25.08;28.25;95199.00;4917964;29;20040;-80
2022/01/27 02:43:14;;;;;;;8.32;3.55;;;;;;;25.07;28.30;95199.25;4933799;28;20031;-80
2022/01/27 02:45:54;;;;;;;9.63;4.03;;;;;;;25.11;28.06;95195.00;4933661;28;20098;-80
2022/01/27 02:48:20;;;;;;;8.57;3.42;;;;;;;25.18;28.09;95206.16;4935284;29;20042;-81
2022/01/27 02:50:45;;;;;;;7.43;3.28;;;;;;;25.15;28.28;95204.03;4931366;29;20065;-79
2022/01/27 02:53:20;;;;;;;8.35;3.20;;;;;;;25.14;28.06;95210.44;4936201;29;20042;-80
2022/01/27 02:55:48;;;;;;;11.05;3.97;;;;;;;25.12;27.78;95205.38;4937273;29;20046;-79
2022/01/27 02:58:15;;;;;;;9.10;3.38;;;;;;;25.14;27.86;95197.13;4930353;29;20032;-79
2022/01/27 03:00:42;;;;;;;6.32;3.38;;;;;;;25.13;27.97;95199.00;4908384;29;20079;-81
2022/01/27 03:03:10;;;;;;;9.60;3.85;;;;;;;25.12;28.01;95199.25;4916929;29;20035;-80
2022/01/27 03:05:36;;;;;;;8.15;3.25;;;;;;;25.15;27.73;95196.84;4947279;28;20118;-80
2022/01/27 03:08:03;;;;;;;8.98;3.35;;;;;;;25.11;28.10;95195.81;4913166;29;20024;-80
2022/01/27 03:10:30;;;;;;;7.55;3.25;;;;;;;25.13;28.06;95190.19;4915790;29;20038;-80
2022/01/27 03:12:59;;;;;;;11.25;3.65;;;;;;;25.12;27.82;95191.28;4932163;29;20037;-80
2022/01/27 03:15:27;;;;;;;8.87;3.40;;;;;;;25.12;27.93;95191.28;4901311;29;20047;-80
2022/01/27 03:18:01;;;;;;;7.15;2.83;;;;;;;25.10;28.09;95190.75;4927992;29;20277;-81
2022/01/27 03:20:33;;;;;;;9.38;3.00;;;;;;;25.10;27.88;95186.22;4930139;29;20031;-80
2022/01/27 03:22:59;;;;;;;8.68;3.25;;;;;;;25.12;27.83;95185.97;4929825;29;20032;-80
2022/01/27 03:25:25;;;;;;;5.15;2.60;;;;;;;25.15;27.84;95191.53;4928972;29;20059;-80
2022/01/27 03:27:50;;;;;;;5.15;2.95;;;;;;;25.16;27.42;95187.00;4928740;29;20087;-80
2022/01/27 03:30:18;;;;;;;4.72;3.10;;;;;;;25.13;27.62;95188.34;4929885;29;20035;-80
2022/01/27 03:32:44;;;;;;;8.32;2.97;;;;;;;25.12;27.85;95186.75;4914561;29;20023;-80
2022/01/27 03:35:09;;;;;;;6.80;3.20;;;;;;;25.11;27.54;95187.00;4929221;29;20122;-80
2022/01/27 03:37:37;;;;;;;6.88;3.00;;;;;;;25.14;27.59;95189.13;4906110;29;20051;-79
2022/01/27 03:40:03;;;;;;;6.82;3.10;;;;;;;25.11;27.59;95195.00;4928180;29;20028;-79
2022/01/27 03:42:29;;;;;;;6.20;3.10;;;;;;;25.12;27.64;95196.59;4944889;28;20035;-80
2022/01/27 03:44:54;;;;;;;5.25;2.75;;;;;;;25.12;27.65;95208.03;4932487;29;20034;-80
2022/01/27 03:47:20;;;;;;;5.70;2.75;;;;;;;25.12;27.18;95218.69;4932130;29;20031;-80
2022/01/27 03:49:45;;;;;;;6.35;2.88;;;;;;;25.10;27.31;95215.50;4934578;28;20051;-81
2022/01/27 03:52:29;;;;;;;6.97;2.92;;;;;;;25.14;27.41;95211.22;4919230;29;20024;-80
2022/01/27 03:54:54;;;;;;;5.38;2.65;;;;;;;25.11;27.68;95218.94;4935498;29;20030;-80
2022/01/27 03:57:20;;;;;;;6.03;2.50;;;;;;;25.08;27.61;95212.31;4935138;29;20035;-80
2022/01/27 03:59:45;;;;;;;6.35;3.00;;;;;;;25.07;27.39;95209.91;4932043;29;20091;-80
2022/01/27 04:02:11;;;;;;;6.28;2.75;;;;;;;25.09;27.49;95205.94;4913060;29;20043;-80
2022/01/27 04:04:37;;;;;;;4.95;2.97;;;;;;;25.07;27.31;95204.59;4933998;29;20039;-80
2022/01/27 04:07:03;;;;;;;8.85;3.13;;;;;;;25.05;27.65;95206.72;4935195;29;20100;-80
2022/01/27 04:09:29;;;;;;;5.57;2.60;;;;;;;25.05;27.27;95201.41;4926045;29;20035;-80
2022/01/27 04:12:00;;;;;;;7.85;2.97;;;;;;;25.03;27.83;95196.34;4934962;29;20059;-80
2022/01/27 04:14:25;;;;;;;4.20;2.72;;;;;;;25.02;27.41;95192.09;4934435;29;20044;-79
2022/01/27 04:16:53;;;;;;;6.53;2.90;;;;;;;25.04;27.38;95194.50;4935448;28;20031;-80
2022/01/27 04:19:19;;;;;;;5.40;2.92;;;;;;;25.01;27.56;95193.16;4933019;29;20047;-79
2022/01/27 04:21:44;;;;;;;4.60;2.90;;;;;;;24.96;27.53;95190.53;4934198;29;20042;-79
2022/01/27 04:24:11;;;;;;;4.85;2.85;;;;;;;25.02;27.64;95189.44;4929022;29;20023;-80
2022/01/27 04:26:50;;;;;;;6.47;2.80;;;;;;;24.99;27.84;95181.97;4934645;29;20024;-80
2022/01/27 04:29:24;;;;;;;6.53;3.30;;;;;;;25.03;27.30;95177.72;4932479;29;20059;-79
2022/01/27 04:31:50;;;;;;;4.78;3.08;;;;;;;25.02;27.32;95173.47;4908973;29;20016;-80
2022/01/27 04:34:16;;;;;;;6.30;3.08;;;;;;;24.98;27.31;95170.56;4932751;29;20036;-79
2022/01/27 04:36:54;;;;;;;6.80;3.03;;;;;;;24.98;27.21;95170.56;4918743;29;20038;-80
2022/01/27 04:39:28;;;;;;;7.20;2.90;;;;;;;25.00;27.15;95172.94;4939964;29;20063;-80
2022/01/27 04:42:06;;;;;;;4.90;2.83;;;;;;;25.06;27.58;95179.06;4948069;29;20416;-79
2022/01/27 04:44:51;;;;;;;6.28;3.10;;;;;;;25.05;27.16;95174.78;4935822;29;20031;-80
2022/01/27 04:47:28;;;;;;;4.28;3.10;;;;;;;25.09;26.42;95181.16;4917834;29;20067;-80
2022/01/27 04:49:53;;;;;;;5.13;3.30;;;;;;;25.09;26.42;95184.63;4917107;29;20032;-80
2022/01/27 04:52:22;;;;;;;6.15;3.67;;;;;;;25.06;26.17;95184.38;4920754;29;20027;-80
2022/01/27 04:55:03;;;;;;;5.47;3.63;;;;;;;25.11;25.68;95190.50;4917987;29;20103;-80
2022/01/27 04:57:29;;;;;;;5.70;3.53;;;;;;;25.09;25.73;95176.66;4934081;29;20028;-80
2022/01/27 04:59:55;;;;;;;8.73;3.85;;;;;;;25.06;26.05;95174.53;4933399;29;20028;-79
2022/01/27 05:02:43;;;;;;;6.85;4.13;;;;;;;25.09;24.98;95171.34;4933645;29;20042;-80
2022/01/27 05:05:09;;;;;;;5.00;3.85;;;;;;;25.06;25.43;95181.72;4927772;29;20092;-80
2022/01/27 05:07:35;;;;;;;4.70;3.78;;;;;;;25.06;24.86;95179.06;4918020;29;20036;-80
2022/01/27 05:10:09;;;;;;;5.65;4.30;;;;;;;25.07;24.59;95170.00;4932920;29;20039;-80
2022/01/27 05:12:42;;;;;;;5.30;4.03;;;;;;;25.07;24.57;95181.44;4935566;29;20035;-79
2022/01/27 05:15:21;;;;;;;6.50;4.15;;;;;;;25.06;24.21;95176.41;4944500;28;20644;-80
2022/01/27 05:17:47;;;;;;;4.65;3.75;;;;;;;25.01;24.86;95181.72;4939202;28;20043;-79
2022/01/27 05:20:12;;;;;;;5.40;3.95;;;;;;;24.97;24.71;95176.13;4953685;28;20050;-79
2022/01/27 05:22:37;;;;;;;6.35;3.97;;;;;;;25.05;24.02;95178.25;4954196;28;20098;-79
2022/01/27 05:25:03;;;;;;;5.22;3.92;;;;;;;25.03;24.05;95171.59;4929029;28;20039;-80
2022/01/27 05:27:28;;;;;;;8.10;4.85;;;;;;;25.02;24.29;95180.63;4933243;29;20094;-79
2022/01/27 05:29:54;;;;;;;7.60;4.55;;;;;;;24.98;24.75;95175.88;4933403;28;20034;-79
2022/01/27 05:32:27;;;;;;;5.85;4.20;;;;;;;24.97;24.22;95187.56;4916093;29;20031;-79
2022/01/27 05:34:53;;;;;;;6.00;4.75;;;;;;;25.00;24.01;95196.91;4933398;29;20039;-79
2022/01/27 05:37:18;;;;;;;6.93;4.47;;;;;;;24.94;23.71;95196.09;4952106;28;20077;-79
2022/01/27 05:39:44;;;;;;;7.07;4.60;;;;;;;25.01;23.74;95195.03;4921965;28;20031;-80
2022/01/27 05:42:09;;;;;;;4.63;3.92;;;;;;;24.98;24.26;95196.38;4935510;28;20038;-80
2022/01/27 05:44:35;;;;;;;6.57;4.55;;;;;;;25.02;23.37;95200.09;4920349;28;20031;-80
2022/01/27 05:47:03;;;;;;;6.20;4.07;;;;;;;24.98;24.40;95185.72;4920556;29;20044;-80
2022/01/27 05:49:28;;;;;;;7.55;4.72;;;;;;;24.94;23.87;95187.31;4932193;29;20119;-80
2022/01/27 05:51:57;;;;;;;5.70;4.05;;;;;;;24.91;23.85;95185.19;4931461;29;20039;-79
2022/01/27 05:54:22;;;;;;;5.30;4.20;;;;;;;24.95;24.24;95181.72;4932726;29;20055;-80
2022/01/27 05:56:47;;;;;;;7.25;4.18;;;;;;;24.88;24.71;95186.53;4917069;29;20055;-80
2022/01/27 05:59:13;;;;;;;6.63;3.78;;;;;;;24.90;24.83;95184.41;4933140;29;20019;-80
2022/01/27 06:01:38;;;;;;;7.30;4.05;;;;;;;24.94;24.98;95185.47;4914937;29;20050;-81
2022/01/27 06:04:04;;;;;;;6.15;3.50;;;;;;;24.95;25.21;95179.06;4918531;29;20011;-81
2022/01/27 06:06:29;;;;;;;6.65;3.58;;;;;;;24.95;25.35;95176.41;4934618;29;20035;-81
2022/01/27 06:08:55;;;;;;;6.10;3.50;;;;;;;24.94;25.28;95184.66;4915991;29;20027;-81
2022/01/27 06:11:22;;;;;;;5.10;3.50;;;;;;;24.94;25.70;95180.16;4911373;29;20039;-81
2022/01/27 06:14:06;;;;;;;4.82;3.60;;;;;;;24.96;25.29;95166.56;4930438;28;20075;-81
2022/01/27 06:16:31;;;;;;;5.90;3.60;;;;;;;24.97;25.83;95168.94;4913514;29;20040;-80
2022/01/27 06:18:57;;;;;;;4.85;2.95;;;;;;;24.98;25.75;95169.75;4919442;29;20050;-79
2022/01/27 06:21:22;;;;;;;6.60;3.67;;;;;;;25.04;25.58;95166.03;4906467;29;20110;-80
2022/01/27 06:23:48;;;;;;;8.35;3.50;;;;;;;25.02;25.99;95154.84;4915669;29;20051;-81
2022/01/27 06:26:14;;;;;;;5.07;3.40;;;;;;;24.95;25.85;95157.78;4920632;29;20031;-81
2022/01/27 06:28:39;;;;;;;4.95;3.20;;;;;;;24.94;26.00;95155.38;4919161;29;20360;-80
2022/01/27 06:31:05;;;;;;;5.60;3.58;;;;;;;24.96;25.92;95153.28;4918013;29;20127;-81
2022/01/27 06:33:30;;;;;;;7.00;3.35;;;;;;;24.98;26.04;95159.13;4914134;29;20047;-80
2022/01/27 06:35:55;;;;;;;8.13;3.60;;;;;;;24.97;26.05;95158.31;4915471;29;20028;-80
2022/01/27 06:38:21;;;;;;;6.30;3.92;;;;;;;24.99;25.51;95150.06;4914159;29;20074;-81
2022/01/27 06:40:46;;;;;;;8.82;3.90;;;;;;;24.99;25.73;95152.72;4910929;29;20032;-80
2022/01/27 06:43:13;;;;;;;12.65;4.32;;;;;;;24.98;25.85;95154.59;4920419;29;20083;-80
2022/01/27 06:45:47;;;;;;;11.00;4.05;;;;;;;24.91;25.87;95143.44;4915814;29;20035;-81
2022/01/27 06:48:15;;;;;;;10.65;4.03;;;;;;;24.92;25.98;95138.91;4945622;29;20042;-80
2022/01/27 06:50:41;;;;;;;8.90;4.40;;;;;;;24.93;25.59;95141.28;4914071;29;20043;-80
2022/01/27 06:53:06;;;;;;;5.93;4.50;;;;;;;24.96;25.05;95143.41;4928491;29;20031;-80
2022/01/27 06:55:37;;;;;;;7.85;4.90;;;;;;;24.95;24.83;95141.03;4930829;29;20032;-80
2022/01/27 06:58:03;;;;;;;6.78;4.50;;;;;;;24.92;24.75;95139.72;4912205;29;20030;-80
2022/01/27 07:00:30;;;;;;;8.95;4.30;;;;;;;24.91;25.13;95147.97;4930456;29;20386;-81
2022/01/27 07:02:58;;;;;;;5.88;4.07;;;;;;;24.88;25.09;95143.94;4931626;29;20038;-80
2022/01/27 07:05:33;;;;;;;7.72;4.32;;;;;;;24.88;25.24;95149.28;4931087;29;20046;-81
2022/01/27 07:07:59;;;;;;;8.98;4.22;;;;;;;24.92;25.28;95147.69;4932088;29;20031;-80
2022/01/27 07:10:25;;;;;;;7.63;4.35;;;;;;;24.93;25.53;95146.59;4929197;29;20038;-80
2022/01/27 07:12:52;;;;;;;10.23;4.05;;;;;;;24.93;25.57;95151.94;4915247;29;20046;-80
2022/01/27 07:15:21;;;;;;;7.03;3.97;;;;;;;24.90;25.88;95155.16;4915530;29;20032;-80
2022/01/27 07:17:47;;;;;;;10.98;4.10;;;;;;;24.87;25.93;95154.88;4928840;29;20054;-79
2022/01/27 07:20:13;;;;;;;9.55;3.90;;;;;;;24.90;26.09;95165.78;4922779;29;20085;-80
2022/01/27 07:22:38;;;;;;;14.55;4.55;;;;;;;24.89;26.36;95156.19;4916023;29;20032;-80
2022/01/27 07:25:05;;;;;;;8.95;3.85;;;;;;;24.86;26.57;95166.56;4929373;29;20122;-80
2022/01/27 07:27:33;;;;;;;14.35;4.20;;;;;;;24.88;26.29;95162.56;4906860;29;20044;-80
2022/01/27 07:29:59;;;;;;;8.15;4.10;;;;;;;24.89;26.42;95166.84;4931582;29;20078;-80
2022/01/27 07:32:24;;;;;;;13.68;4.63;;;;;;;24.88;26.92;95175.09;4930545;29;20165;-80
2022/01/27 07:34:52;;;;;;;10.77;4.03;;;;;;;24.86;26.88;95178.00;4930619;29;20035;-80
2022/01/27 07:37:17;;;;;;;11.93;4.35;;;;;;;24.84;26.69;95174.81;4929777;29;20032;-80
2022/01/27 07:39:45;;;;;;;9.93;4.20;;;;;;;24.87;26.90;95178.84;4930529;29;20042;-80
2022/01/27 07:42:10;;;;;;;7.50;4.15;;;;;;;24.86;26.93;95180.66;4928093;29;20089;-80
2022/01/27 07:44:36;;;;;;;11.05;4.50;;;;;;;24.89;27.12;95177.47;4914644;29;20028;-80
2022/01/27 07:47:06;;;;;;;11.52;4.30;;;;;;;24.83;27.42;95178.56;4914636;29;20031;-80
2022/01/27 07:49:34;;;;;;;9.20;4.03;;;;;;;24.90;27.55;95176.44;4915646;29;20063;-80
2022/01/27 07:51:59;;;;;;;15.43;4.75;;;;;;;24.91;27.29;95175.34;4929720;29;20052;-80
2022/01/27 07:54:25;;;;;;;10.38;4.57;;;;;;;24.90;27.45;95176.44;4931036;29;20042;-80
2022/01/27 07:56:50;;;;;;;8.32;4.22;;;;;;;24.93;27.70;95167.09;4930863;29;20027;-80
2022/01/27 07:59:18;;;;;;;16.02;4.40;;;;;;;24.91;27.80;95172.69;4930247;29;20040;-80
2022/01/27 08:01:43;;;;;;;13.63;4.10;;;;;;;24.91;27.87;95164.72;4916667;29;20043;-80
2022/01/27 08:04:09;;;;;;;12.20;4.40;;;;;;;24.90;27.86;95164.97;4930615;29;20043;-80
2022/01/27 08:06:34;;;;;;;13.50;4.55;;;;;;;24.93;28.34;95164.44;4929813;29;20032;-80
2022/01/27 08:08:59;;;;;;;9.70;4.13;;;;;;;24.90;27.80;95163.13;4924123;29;20036;-80
2022/01/27 08:11:25;;;;;;;11.15;3.90;;;;;;;24.92;28.12;95176.13;4928935;29;20024;-80
2022/01/27 08:13:58;;;;;;;13.15;4.30;;;;;;;24.87;28.17;95174.31;4918593;29;20042;-80
2022/01/27 08:16:23;;;;;;;18.00;4.40;;;;;;;24.92;28.58;95171.63;4930582;29;20031;-80
2022/01/27 08:18:48;;;;;;;13.98;4.65;;;;;;;24.94;28.42;95172.16;4914505;29;20032;-80
2022/01/27 08:21:14;;;;;;;14.20;4.30;;;;;;;24.95;28.34;95187.03;4913523;29;20030;-80
2022/01/27 08:23:44;;;;;;;21.17;4.35;;;;;;;24.91;28.63;95185.19;4899810;29;20032;-80
2022/01/27 08:26:12;;;;;;;12.93;4.65;;;;;;;24.95;28.40;95194.25;4930104;29;20035;-80
2022/01/27 08:28:45;;;;;;;11.32;4.10;;;;;;;24.89;28.71;95184.69;4931108;29;20050;-80
2022/01/27 08:31:13;;;;;;;11.13;3.85;;;;;;;24.90;28.47;95192.41;4928911;29;20055;-80
2022/01/27 08:33:40;;;;;;;12.43;4.30;;;;;;;24.93;28.59;95189.19;4912043;29;20059;-81
2022/01/27 08:36:05;;;;;;;18.92;4.57;;;;;;;24.92;28.62;95187.59;4932987;29;20031;-80
2022/01/27 08:38:43;;;;;;;11.68;4.45;;;;;;;24.93;28.68;95197.16;4917995;29;20095;-80
2022/01/27 08:41:09;;;;;;;12.88;4.10;;;;;;;24.94;28.37;95190.78;4932740;29;20029;-80
2022/01/27 08:43:34;;;;;;;16.17;4.68;;;;;;;24.94;28.96;95196.09;4918065;29;20059;-81
2022/01/27 08:46:01;;;;;;;20.70;4.78;;;;;;;24.98;28.76;95191.06;4935011;29;20058;-81
2022/01/27 08:48:28;;;;;;;24.15;5.80;;;;;;;24.94;28.70;95182.81;4935008;29;20138;-81
2022/01/27 08:51:00;;;;;;;21.45;4.95;;;;;;;24.93;28.68;95183.84;4917528;29;20094;-80
2022/01/27 08:53:26;;;;;;;11.50;4.13;;;;;;;24.95;28.97;95184.38;4920888;29;20074;-80
2022/01/27 08:56:13;;;;;;;14.63;3.95;;;;;;;25.03;28.90;95184.91;4882850;29;20048;-80
2022/01/27 08:58:39;;;;;;;12.05;4.10;;;;;;;24.95;28.82;95173.75;4882164;29;20053;-80
2022/01/27 09:01:04;;;;;;;16.50;4.50;;;;;;;24.95;28.88;95176.41;4853737;29;20048;-80
2022/01/27 09:03:30;;;;;;;14.75;4.05;;;;;;;25.00;28.84;95180.94;4878444;29;20048;-80
2022/01/27 09:05:55;;;;;;;13.20;4.40;;;;;;;24.99;29.15;95176.66;4878731;29;20028;-80
2022/01/27 09:08:23;;;;;;;11.73;4.25;;;;;;;24.96;29.06;95171.91;4879163;29;20045;-80
2022/01/27 09:10:48;;;;;;;13.75;4.43;;;;;;;25.01;29.20;95173.75;4878817;29;20037;-81
2022/01/27 09:13:18;;;;;;;13.82;4.30;;;;;;;25.01;29.21;95176.41;4881043;29;20137;-80
2022/01/27 09:15:43;;;;;;;11.60;4.13;;;;;;;25.03;29.01;95176.94;4885119;29;20036;-81
2022/01/27 09:18:09;;;;;;;13.35;4.05;;;;;;;25.01;28.94;95187.03;4876782;29;20032;-81
2022/01/27 09:20:35;;;;;;;10.32;4.05;;;;;;;25.06;29.02;95181.72;4844745;29;20049;-81
2022/01/27 09:23:02;;;;;;;11.90;4.05;;;;;;;25.04;29.30;95187.31;4844018;29;20048;-81
2022/01/27 09:25:40;;;;;;;9.52;4.03;;;;;;;25.00;29.04;95188.09;4847639;29;20079;-81
2022/01/27 09:28:15;;;;;;;11.55;3.88;;;;;;;25.05;29.11;95196.06;4881499;29;20037;-80
2022/01/27 09:30:42;;;;;;;11.27;3.90;;;;;;;25.01;29.04;95200.34;4851258;29;20040;-81
2022/01/27 09:33:07;;;;;;;9.38;3.83;;;;;;;24.98;29.49;95197.16;4868318;29;20119;-81
2022/01/27 09:35:35;;;;;;;10.15;4.00;;;;;;;24.97;29.35;95203.53;4908329;29;20046;-80
2022/01/27 09:38:01;;;;;;;10.52;3.90;;;;;;;25.02;29.31;95194.75;4905855;29;20082;-81
2022/01/27 09:40:27;;;;;;;13.32;4.57;;;;;;;25.04;29.53;95197.16;4921665;29;20032;-80
2022/01/27 09:42:54;;;;;;;8.57;3.45;;;;;;;25.01;29.43;95203.00;4908600;29;20032;-80
2022/01/27 09:45:29;;;;;;;7.35;3.65;;;;;;;25.04;29.31;95199.81;4906858;29;20038;-81
2022/01/27 09:47:56;;;;;;;9.60;3.53;;;;;;;25.03;29.32;95200.88;4889239;29;20060;-81
2022/01/27 09:53:03;;;;;;;9.73;3.42;;;;;;;25.07;29.32;95204.59;4918479;29;20035;-81
2022/01/27 09:55:28;;;;;;;9.63;3.72;;;;;;;25.01;29.49;95205.66;4888281;29;20027;-80
2022/01/27 09:58:04;;;;;;;10.02;3.70;;;;;;;25.04;29.67;95205.94;4907454;29;20100;-80
2022/01/27 10:00:29;;;;;;;8.77;3.58;;;;;;;25.06;29.47;95205.66;4930415;29;20055;-81
2022/01/27 10:03:01;;;;;;;9.05;3.35;;;;;;;25.02;29.77;95201.94;4914765;29;20027;-81
2022/01/27 10:05:27;;;;;;;8.18;3.90;;;;;;;25.06;29.42;95203.78;4933728;29;20114;-81
2022/01/27 10:07:53;;;;;;;9.35;3.75;;;;;;;25.06;29.79;95197.69;4916110;29;20034;-80
2022/01/27 10:10:19;;;;;;;9.75;3.60;;;;;;;25.06;29.62;95189.69;4913874;29;20110;-80
2022/01/27 10:12:55;;;;;;;11.00;3.83;;;;;;;25.00;29.82;95185.44;4911160;29;20035;-80
2022/01/27 10:15:26;;;;;;;6.78;3.55;;;;;;;25.03;29.97;95182.25;4932861;29;20035;-80
2022/01/27 10:18:07;;;;;;;9.18;3.67;;;;;;;25.04;30.00;95178.53;4932290;29;20020;-81
2022/01/27 10:20:32;;;;;;;11.70;3.72;;;;;;;25.05;30.02;95180.13;4948742;28;20038;-80
2022/01/27 10:23:22;;;;;;;7.80;3.50;;;;;;;25.12;30.04;95178.75;4932108;29;20031;-80
2022/01/27 10:26:07;;;;;;;7.90;3.53;;;;;;;25.08;29.88;95180.38;4942802;28;20107;-80
2022/01/27 10:31:19;;;;;;;6.57;3.23;;;;;;;25.10;29.81;95177.44;4942417;28;20087;-81
2022/01/27 10:33:53;;;;;;;10.57;3.50;;;;;;;25.06;29.94;95177.19;4928632;29;20083;-80
2022/01/27 10:36:41;;;;;;;7.30;3.58;;;;;;;25.09;29.85;95175.84;4946224;29;20115;-80
2022/01/27 10:39:27;;;;;;;5.90;3.50;;;;;;;25.16;29.88;95174.47;4932079;29;20030;-80
2022/01/27 10:41:55;;;;;;;6.90;3.50;;;;;;;25.09;30.10;95173.19;4915930;29;20063;-81
2022/01/27 10:44:23;;;;;;;8.85;3.67;;;;;;;25.10;30.04;95172.91;4947953;28;20090;-81
2022/01/27 10:47:04;;;;;;;7.25;3.70;;;;;;;25.14;30.19;95173.19;4931584;29;20046;-81
2022/01/27 10:49:31;;;;;;;7.88;3.78;;;;;;;25.08;30.12;95176.94;4946624;29;20082;-81
2022/01/27 10:51:57;;;;;;;8.20;3.80;;;;;;;25.09;29.88;95166.00;4931620;29;20027;-81
2022/01/27 10:54:40;;;;;;;6.15;3.63;;;;;;;25.10;29.80;95170.25;4914499;29;20074;-81
2022/01/27 10:57:07;;;;;;;9.52;3.85;;;;;;;25.11;30.10;95173.69;4930262;29;20047;-81
2022/01/27 10:59:32;;;;;;;8.70;3.50;;;;;;;25.12;29.83;95173.44;4931509;29;20035;-81
2022/01/27 11:01:58;;;;;;;11.15;3.70;;;;;;;25.12;30.08;95177.97;4933387;29;20039;-81
2022/01/27 11:04:33;;;;;;;7.93;3.65;;;;;;;25.13;29.87;95176.88;4931133;29;20035;-81
2022/01/27 11:07:01;;;;;;;7.72;3.58;;;;;;;25.16;29.88;95177.16;4914768;29;20036;-81
2022/01/27 11:09:41;;;;;;;10.30;3.85;;;;;;;25.14;30.19;95173.97;4914529;29;20056;-81
2022/01/27 11:12:12;;;;;;;8.18;3.75;;;;;;;25.16;30.00;95168.38;4929155;29;20032;-80
2022/01/27 11:14:40;;;;;;;9.63;3.88;;;;;;;25.17;30.61;95172.63;4932162;29;20050;-80
2022/01/27 11:17:06;;;;;;;8.82;4.40;;;;;;;25.19;30.67;95157.19;4935583;29;20034;-81
2022/01/27 11:27:39;;;;;;;8.80;4.63;;;;;;;25.23;31.35;95144.19;4872065;29;20180;-81
2022/01/27 11:30:06;;;;;;;11.82;3.70;;;;;;;25.23;31.82;95144.97;4842122;29;20037;-81
2022/01/27 11:32:35;;;;;;;8.13;3.97;;;;;;;25.21;32.03;95149.72;4857485;29;20136;-81
2022/01/27 11:35:22;;;;;;;7.72;4.30;;;;;;;25.31;31.70;95152.38;4854999;29;20100;-81
2022/01/27 11:37:57;;;;;;;8.07;4.10;;;;;;;25.27;31.97;95147.88;4861322;29;20123;-81
2022/01/27 11:40:52;;;;;;;9.88;3.80;;;;;;;25.31;31.87;95151.59;4843950;29;20037;-81
2022/01/27 11:43:18;;;;;;;13.07;4.32;;;;;;;25.28;31.54;95136.94;4874170;29;20120;-81
2022/01/27 11:45:47;;;;;;;8.35;3.90;;;;;;;25.23;31.73;95139.66;4841353;29;20220;-81
2022/01/27 11:48:14;;;;;;;10.25;3.70;;;;;;;25.28;32.08;95136.94;4853622;29;20137;-81
2022/01/27 11:51:15;;;;;;;8.10;4.00;;;;;;;25.22;32.32;95135.34;4872057;29;20041;-80
2022/01/27 11:53:50;;;;;;;8.43;3.47;;;;;;;25.27;32.19;95138.03;4851083;29;20109;-81
2022/01/27 11:56:28;;;;;;;16.73;3.88;;;;;;;25.26;32.33;95132.97;4823527;29;20042;-81
2022/01/27 11:58:54;;;;;;;10.50;3.88;;;;;;;25.24;32.34;95133.22;4854674;29;20049;-80
2022/01/27 12:01:26;;;;;;;9.18;3.78;;;;;;;25.23;32.37;95123.66;4854531;29;20167;-81
2022/01/27 12:04:15;;;;;;;10.32;4.03;;;;;;;25.25;32.65;95116.22;4861614;29;20050;-81
2022/01/27 12:06:49;;;;;;;8.35;3.88;;;;;;;25.23;32.78;95110.38;4912870;29;20036;-81
2022/01/27 12:09:20;;;;;;;10.65;3.58;;;;;;;25.19;32.73;95117.28;4929248;29;20123;-81
2022/01/27 12:12:04;;;;;;;12.80;3.70;;;;;;;25.21;32.77;95111.66;4932730;29;20039;-81
2022/01/27 12:14:34;;;;;;;12.45;3.90;;;;;;;25.25;32.42;95105.56;4933847;29;20039;-81
2022/01/27 12:17:12;;;;;;;6.65;3.50;;;;;;;25.30;32.48;95108.22;4937055;29;20031;-81
2022/01/27 12:19:50;;;;;;;7.88;3.90;;;;;;;25.31;32.27;95101.00;4931217;29;20039;-82
2022/01/27 12:22:26;;;;;;;7.53;3.60;;;;;;;25.31;32.24;95104.47;4903648;29;20035;-80
2022/01/27 12:25:01;;;;;;;8.48;3.97;;;;;;;25.32;32.63;95110.56;4939957;28;20040;-79